createdAt,value
2023-03-22T00:01:16.912Z,9.10
2023-03-22T00:03:44.142Z,9.10
2023-03-22T00:06:11.372Z,9.20
2023-03-22T00:08:38.532Z,9.20
2023-03-22T00:11:06.572Z,9.20
2023-03-22T00:13:35.608Z,9.20
2023-03-22T00:16:03.014Z,9.20
2023-03-22T00:18:30.016Z,9.10
2023-03-22T00:20:58.355Z,9.10
2023-03-22T00:23:26.822Z,9.10
2023-03-22T00:25:54.298Z,9.10
2023-03-22T00:28:22.047Z,9.30
2023-03-22T00:31:00.039Z,9.20
2023-03-22T00:33:28.905Z,9.30
2023-03-22T00:35:59.695Z,9.30
2023-03-22T00:38:41.239Z,9.40
2023-03-22T00:41:11.796Z,9.30
2023-03-22T00:43:39.965Z,9.30
2023-03-22T00:46:06.934Z,9.30
2023-03-22T00:48:33.907Z,9.40
2023-03-22T00:51:01.153Z,9.40
2023-03-22T00:53:29.877Z,9.40
2023-03-22T00:56:00.364Z,9.40
2023-03-22T00:58:30.498Z,9.60
2023-03-22T01:00:58.815Z,9.60
2023-03-22T01:03:27.410Z,9.60
2023-03-22T01:05:58.038Z,9.60
2023-03-22T01:08:25.663Z,9.60
2023-03-22T01:10:53.354Z,9.60
2023-03-22T01:13:20.957Z,9.50
2023-03-22T01:15:50.840Z,9.50
2023-03-22T01:18:19.025Z,9.60
2023-03-22T01:20:46.129Z,9.40
2023-03-22T01:23:12.907Z,9.50
2023-03-22T01:25:40.885Z,9.50
2023-03-22T01:28:08.687Z,9.40
2023-03-22T01:30:35.944Z,9.30
2023-03-22T01:33:03.395Z,9.30
2023-03-22T01:35:35.566Z,9.30
2023-03-22T01:38:03.638Z,9.30
2023-03-22T01:40:31.458Z,9.30
2023-03-22T01:43:00.670Z,9.30
2023-03-22T01:45:35.690Z,9.30
2023-03-22T01:48:12.860Z,9.30
2023-03-22T01:50:42.460Z,9.30
2023-03-22T01:53:09.668Z,9.30
2023-03-22T01:55:37.766Z,9.30
2023-03-22T01:58:18.839Z,9.30
2023-03-22T02:00:53.812Z,9.30
2023-03-22T02:04:25.852Z,9.20
2023-03-22T02:06:55.681Z,9.10
2023-03-22T02:09:25.220Z,9.10
2023-03-22T02:12:30.382Z,9.10
2023-03-22T02:15:17.659Z,9.10
2023-03-22T02:18:18.744Z,9.10
2023-03-22T02:20:53.604Z,9.20
2023-03-22T02:23:45.211Z,9.20
2023-03-22T02:26:35.884Z,9.30
2023-03-22T02:29:08.350Z,9.40
2023-03-22T02:31:41.312Z,9.30
2023-03-22T02:34:53.971Z,9.30
2023-03-22T02:37:27.001Z,9.30
2023-03-22T02:40:06.637Z,9.40
2023-03-22T02:42:42.257Z,9.40
2023-03-22T02:45:14.357Z,9.40
2023-03-22T02:47:58.609Z,9.40
2023-03-22T02:50:31.055Z,9.40
2023-03-22T02:53:12.849Z,9.40
2023-03-22T02:55:54.176Z,9.40
2023-03-22T02:58:31.616Z,9.30
2023-03-22T03:01:02.031Z,9.40
2023-03-22T03:03:30.441Z,9.30
2023-03-22T03:06:02.783Z,9.30
2023-03-22T03:08:29.800Z,9.30
2023-03-22T03:10:58.686Z,9.30
2023-03-22T03:13:25.965Z,9.30
2023-03-22T03:15:57.303Z,9.30
2023-03-22T03:18:59.356Z,9.30
2023-03-22T03:21:45.223Z,9.10
2023-03-22T03:24:21.317Z,9.10
2023-03-22T03:27:27.545Z,9.10
2023-03-22T03:30:01.387Z,9.10
2023-03-22T03:33:02.268Z,9.10
2023-03-22T03:35:37.775Z,9.10
2023-03-22T03:38:10.348Z,9.20
2023-03-22T03:40:48.834Z,9.10
2023-03-22T03:43:16.081Z,9.20
2023-03-22T03:45:43.164Z,9.20
2023-03-22T03:48:13.713Z,9.20
2023-03-22T03:50:40.729Z,9.20
2023-03-22T03:53:10.415Z,9.20
2023-03-22T03:55:37.744Z,9.20
2023-03-22T03:58:05.947Z,9.20
2023-03-22T04:00:34.364Z,9.10
2023-03-22T04:03:31.758Z,9.10
2023-03-22T04:06:17.489Z,9.10
2023-03-22T04:08:53.489Z,9.10
2023-03-22T04:11:23.890Z,9.00
2023-03-22T04:13:54.381Z,9.00
2023-03-22T04:16:25.127Z,9.10
2023-03-22T04:18:53.318Z,9.10
2023-03-22T04:21:23.395Z,9.00
2023-03-22T04:23:57.323Z,9.00
2023-03-22T04:26:27.041Z,9.00
2023-03-22T04:29:10.271Z,9.00
2023-03-22T04:31:42.234Z,9.00
2023-03-22T04:34:22.986Z,9.00
2023-03-22T04:37:03.224Z,9.00
2023-03-22T04:39:39.788Z,9.00
2023-03-22T04:42:35.366Z,8.90
2023-03-22T04:45:45.466Z,8.90
2023-03-22T04:49:36.346Z,8.90
2023-03-22T05:19:47.992Z,9.00
2023-03-22T05:22:15.546Z,8.90
2023-03-22T05:24:47.133Z,9.00
2023-03-22T05:27:31.830Z,9.00
2023-03-22T05:30:34.077Z,9.00
2023-03-22T05:33:07.871Z,9.00
2023-03-22T06:22:32.484Z,9.40
2023-03-22T06:28:31.078Z,9.50
2023-03-22T06:31:05.648Z,9.40
2023-03-22T06:33:55.512Z,9.50
2023-03-22T06:36:39.975Z,9.40
2023-03-22T06:39:17.912Z,9.50
2023-03-22T06:42:08.400Z,9.50
2023-03-22T06:44:48.043Z,9.50
2023-03-22T06:47:36.830Z,9.50
2023-03-22T06:50:03.952Z,9.50
2023-03-22T06:52:53.363Z,9.50
2023-03-22T06:55:22.221Z,9.50
2023-03-22T06:57:49.826Z,9.50
2023-03-22T07:00:17.388Z,9.50
2023-03-22T07:02:52.841Z,9.50
2023-03-22T07:05:29.530Z,9.50
2023-03-22T07:07:56.625Z,9.50
2023-03-22T07:10:26.624Z,9.50
2023-03-22T07:12:54.274Z,9.50
2023-03-22T07:15:24.626Z,9.60
2023-03-22T07:18:02.995Z,9.60
2023-03-22T07:20:38.258Z,9.60
2023-03-22T07:23:05.887Z,9.60
2023-03-22T07:25:39.136Z,9.70
2023-03-22T07:28:28.567Z,9.70
2023-03-22T07:31:05.356Z,9.80
2023-03-22T07:33:42.962Z,9.90
2023-03-22T07:36:10.408Z,9.90
2023-03-22T07:38:37.699Z,9.90
2023-03-22T07:41:09.084Z,10.00
2023-03-22T07:43:56.835Z,10.00
2023-03-22T07:46:30.003Z,10.10
2023-03-22T07:49:16.096Z,10.20
2023-03-22T07:52:03.973Z,10.20
2023-03-22T07:54:34.149Z,10.20
2023-03-22T07:57:03.013Z,10.20
2023-03-22T07:59:32.015Z,10.20
2023-03-22T08:02:00.248Z,10.30
2023-03-22T08:04:32.249Z,10.40
2023-03-22T08:07:09.989Z,10.30
2023-03-22T08:09:37.905Z,10.40
2023-03-22T08:12:06.363Z,10.60
2023-03-22T08:14:36.760Z,10.70
2023-03-22T08:17:06.669Z,10.80
2023-03-22T08:19:34.038Z,10.90
2023-03-22T08:22:01.677Z,11.20
2023-03-22T08:24:47.479Z,11.40
2023-03-22T08:27:26.330Z,11.50
2023-03-22T08:29:54.353Z,11.60
2023-03-22T08:32:24.301Z,11.60
2023-03-22T08:34:51.234Z,11.60
2023-03-22T08:37:20.275Z,11.40
2023-03-22T08:39:48.089Z,11.30
2023-03-22T08:42:28.617Z,11.30
2023-03-22T08:44:55.525Z,11.20
2023-03-22T08:47:25.243Z,11.30
2023-03-22T08:49:56.948Z,11.30
2023-03-22T08:52:34.617Z,11.40
2023-03-22T08:55:28.265Z,11.40
2023-03-22T08:58:13.878Z,11.40
2023-03-22T09:01:01.545Z,11.30
2023-03-22T09:03:41.396Z,11.40
2023-03-22T09:06:09.624Z,11.30
2023-03-22T09:08:39.034Z,11.40
2023-03-22T09:11:11.709Z,11.50
2023-03-22T09:13:39.714Z,11.40
2023-03-22T09:16:08.826Z,11.40
2023-03-22T09:18:36.788Z,11.40
2023-03-22T09:21:10.170Z,11.40
2023-03-22T09:23:57.215Z,11.40
2023-03-22T09:26:33.639Z,11.50
2023-03-22T09:29:00.753Z,11.40
2023-03-22T09:31:28.244Z,11.40
2023-03-22T09:34:08.649Z,11.40
2023-03-22T09:36:36.260Z,11.40
2023-03-22T09:39:07.225Z,11.50
2023-03-22T09:41:49.513Z,11.60
2023-03-22T09:44:22.558Z,11.60
2023-03-22T09:46:52.330Z,11.50
2023-03-22T09:49:24.624Z,11.60
2023-03-22T09:51:52.772Z,11.50
2023-03-22T09:54:35.701Z,11.50
2023-03-22T09:57:12.418Z,11.50
2023-03-22T09:59:51.477Z,11.50
2023-03-22T10:02:51.486Z,11.50
2023-03-22T10:05:29.168Z,11.60
2023-03-22T10:08:01.716Z,11.60
2023-03-22T10:10:29.526Z,11.70
2023-03-22T10:13:01.341Z,11.80
2023-03-22T10:15:39.789Z,11.80
2023-03-22T10:18:17.323Z,11.80
2023-03-22T10:20:49.925Z,11.90
2023-03-22T10:23:20.484Z,12.00
2023-03-22T10:25:47.894Z,12.20
2023-03-22T10:28:24.386Z,12.40
2023-03-22T10:30:54.615Z,12.70
2023-03-22T10:33:50.285Z,12.80
2023-03-22T10:36:19.101Z,12.80
2023-03-22T10:38:48.793Z,12.90
2023-03-22T10:41:19.910Z,12.90
2023-03-22T10:43:49.928Z,12.80
2023-03-22T10:46:19.665Z,12.70
2023-03-22T10:48:48.107Z,12.90
2023-03-22T10:51:29.371Z,12.90
2023-03-22T10:53:58.076Z,13.10
2023-03-22T10:56:25.232Z,13.10
2023-03-22T10:58:54.645Z,13.10
2023-03-22T11:01:29.874Z,13.00
2023-03-22T11:03:59.542Z,13.00
2023-03-22T11:06:32.763Z,13.00
2023-03-22T11:09:01.361Z,12.90
2023-03-22T11:11:33.080Z,12.80
2023-03-22T11:14:13.287Z,12.80
2023-03-22T11:16:48.135Z,12.90
2023-03-22T11:19:20.074Z,12.90
2023-03-22T11:21:47.081Z,12.80
2023-03-22T11:27:23.081Z,12.90
2023-03-22T11:29:54.571Z,13.00
2023-03-22T11:33:12.618Z,12.90
2023-03-22T11:35:39.594Z,13.00
2023-03-22T11:38:07.666Z,13.00
2023-03-22T11:40:36.037Z,13.20
2023-03-22T11:43:23.586Z,13.50
2023-03-22T11:45:53.595Z,13.90
2023-03-22T11:48:29.772Z,14.00
2023-03-22T11:51:03.587Z,14.00
2023-03-22T11:53:32.091Z,14.00
2023-03-22T11:55:59.761Z,14.00
2023-03-22T11:58:28.092Z,14.10
2023-03-22T12:00:57.610Z,14.50
2023-03-22T12:03:38.444Z,14.80
2023-03-22T12:06:27.368Z,15.30
2023-03-22T12:09:23.267Z,15.90
2023-03-22T12:11:51.854Z,15.80
2023-03-22T12:14:24.131Z,15.60
2023-03-22T12:16:57.600Z,15.40
2023-03-22T12:19:55.570Z,15.40
2023-03-22T12:22:33.665Z,15.60
2023-03-22T12:25:01.770Z,15.40
2023-03-22T12:27:35.839Z,15.60
2023-03-22T12:30:22.908Z,15.70
2023-03-22T12:32:58.714Z,15.60
2023-03-22T12:35:27.936Z,15.60
2023-03-22T12:37:57.003Z,16.00
2023-03-22T12:40:25.783Z,16.40
2023-03-22T12:42:59.695Z,16.60
2023-03-22T12:45:28.023Z,16.60
2023-03-22T12:48:06.227Z,16.40
2023-03-22T12:50:36.585Z,16.40
2023-03-22T12:53:04.361Z,16.00
2023-03-22T12:55:33.327Z,15.90
2023-03-22T12:58:00.179Z,15.70
2023-03-22T13:00:34.303Z,15.60
2023-03-22T13:03:09.183Z,15.50
2023-03-22T13:05:37.310Z,15.40
2023-03-22T13:08:05.602Z,15.30
2023-03-22T13:10:36.758Z,15.00
2023-03-22T13:13:16.740Z,14.70
2023-03-22T13:15:55.893Z,14.60
2023-03-22T13:18:32.561Z,14.40
2023-03-22T13:21:17.883Z,14.30
2023-03-22T13:24:10.407Z,14.10
2023-03-22T13:26:45.882Z,14.10
2023-03-22T13:29:18.687Z,13.90
2023-03-22T13:31:47.130Z,13.90
2023-03-22T13:34:27.090Z,13.90
2023-03-22T13:36:57.780Z,13.90
2023-03-22T13:39:25.421Z,13.80
2023-03-22T13:42:22.020Z,13.80
2023-03-22T13:45:02.641Z,13.90
2023-03-22T13:47:34.997Z,13.90
2023-03-22T13:50:22.576Z,13.90
2023-03-22T13:52:53.406Z,13.90
2023-03-22T13:55:36.246Z,13.90
2023-03-22T13:58:05.470Z,14.00
2023-03-22T14:00:33.550Z,14.10
2023-03-22T14:03:21.895Z,14.20
2023-03-22T14:05:49.556Z,14.20
2023-03-22T14:08:20.431Z,14.30
2023-03-22T14:10:51.989Z,14.20
2023-03-22T14:13:28.219Z,14.10
2023-03-22T14:16:16.028Z,14.00
2023-03-22T14:18:43.310Z,13.90
2023-03-22T14:21:14.573Z,13.80
